KLM124 EGKK-EDDF
Flight info
| Callsign | KLM124 |
|---|---|
| Flight time | N/A |
| Altitude | 35000 |
| Route | EGKK/26L N0466F350 MIMF1M MIMFO Y312 DVR UL9 KONAN UL607 KOK DCT REMBA UL607 SPI T180 NIVNU/N0401F230 T847 IMCOM IMCO1A EDDF/25R |
| Aircraft | B772/H-V/N |
Departure
| Time | 2026-04-17 21:16 |
|---|---|
| Airport | London Gatwick Airport (EGKK) |
Arrival
| Time | N/A |
|---|---|
| Airport | Frankfurt Main Airport (EDDF) |
| Time | Latitude | Longitude | Altitude | Speed | Heading |
|---|---|---|---|---|---|
| 2026-04-17 20:39 | 51.15876 | -0.16977 | 204 ft | 0 kts | 106° |
| 2026-04-17 20:47 | 51.15876 | -0.16976 | 204 ft | 0 kts | 106° |
| 2026-04-17 20:47 | 51.15875 | -0.16976 | 204 ft | 0 kts | 106° |
| 2026-04-17 20:47 | 51.15875 | -0.16975 | 204 ft | 0 kts | 106° |
| 2026-04-17 20:48 | 51.15875 | -0.16974 | 204 ft | 0 kts | 106° |
| 2026-04-17 20:49 | 51.15875 | -0.16973 | 204 ft | 0 kts | 106° |
| 2026-04-17 20:50 | 51.15875 | -0.16972 | 204 ft | 0 kts | 106° |
| 2026-04-17 20:51 | 51.15875 | -0.16971 | 204 ft | 0 kts | 106° |
| 2026-04-17 20:51 | 51.15875 | -0.16970 | 204 ft | 0 kts | 106° |
| 2026-04-17 20:52 | 51.15874 | -0.16970 | 204 ft | 0 kts | 107° |
| 2026-04-17 20:52 | 51.15874 | -0.16969 | 204 ft | 0 kts | 107° |
| 2026-04-17 20:53 | 51.15874 | -0.16968 | 204 ft | 0 kts | 107° |
| 2026-04-17 20:54 | 51.15874 | -0.16967 | 204 ft | 0 kts | 107° |
| 2026-04-17 20:54 | 51.15874 | -0.16966 | 204 ft | 0 kts | 107° |
| 2026-04-17 20:55 | 51.15873 | -0.16965 | 204 ft | 0 kts | 107° |
| 2026-04-17 20:56 | 51.15873 | -0.16964 | 204 ft | 0 kts | 107° |
| 2026-04-17 20:57 | 51.15874 | -0.16967 | 204 ft | 0 kts | 107° |
| 2026-04-17 20:57 | 51.15877 | -0.16985 | 204 ft | 3 kts | 106° |
| 2026-04-17 20:57 | 51.15884 | -0.17017 | 204 ft | 1 kts | 133° |
| 2026-04-17 20:57 | 51.15891 | -0.17026 | 204 ft | 1 kts | 156° |
| 2026-04-17 20:58 | 51.15910 | -0.17031 | 204 ft | 3 kts | 188° |
| 2026-04-17 20:58 | 51.15935 | -0.17018 | 204 ft | 3 kts | 203° |
| 2026-04-17 20:58 | 51.15941 | -0.17014 | 204 ft | 0 kts | 201° |
| 2026-04-17 21:04 | 51.15940 | -0.17014 | 204 ft | 0 kts | 201° |
| 2026-04-17 21:04 | 51.15931 | -0.17020 | 204 ft | 2 kts | 201° |
| 2026-04-17 21:05 | 51.15895 | -0.17045 | 204 ft | 6 kts | 204° |
| 2026-04-17 21:05 | 51.15846 | -0.17076 | 204 ft | 8 kts | 207° |
| 2026-04-17 21:05 | 51.15811 | -0.17151 | 204 ft | 9 kts | 248° |
| 2026-04-17 21:05 | 51.15793 | -0.17258 | 204 ft | 10 kts | 257° |
| 2026-04-17 21:06 | 51.15777 | -0.17375 | 204 ft | 11 kts | 259° |
| 2026-04-17 21:06 | 51.15740 | -0.17481 | 204 ft | 11 kts | 200° |
| 2026-04-17 21:06 | 51.15657 | -0.17472 | 204 ft | 12 kts | 169° |
| 2026-04-17 21:06 | 51.15572 | -0.17446 | 204 ft | 12 kts | 168° |
| 2026-04-17 21:07 | 51.15482 | -0.17415 | 204 ft | 13 kts | 168° |
| 2026-04-17 21:07 | 51.15391 | -0.17385 | 204 ft | 13 kts | 168° |
| 2026-04-17 21:07 | 51.15298 | -0.17355 | 204 ft | 13 kts | 167° |
| 2026-04-17 21:07 | 51.15248 | -0.17266 | 204 ft | 11 kts | 91° |
| 2026-04-17 21:08 | 51.15260 | -0.17136 | 204 ft | 12 kts | 77° |
| 2026-04-17 21:08 | 51.15279 | -0.17000 | 204 ft | 12 kts | 78° |
| 2026-04-17 21:08 | 51.15286 | -0.16869 | 204 ft | 6 kts | 106° |
| 2026-04-17 21:08 | 51.15281 | -0.16853 | 204 ft | 0 kts | 126° |
| 2026-04-17 21:09 | 51.15279 | -0.16849 | 204 ft | 1 kts | 129° |
| 2026-04-17 21:10 | 51.15270 | -0.16837 | 204 ft | 2 kts | 147° |
| 2026-04-17 21:10 | 51.15250 | -0.16823 | 204 ft | 3 kts | 161° |
| 2026-04-17 21:10 | 51.15245 | -0.16821 | 204 ft | 0 kts | 161° |
| 2026-04-17 21:10 | 51.15242 | -0.16819 | 204 ft | 0 kts | 161° |
| 2026-04-17 21:11 | 51.15240 | -0.16818 | 204 ft | 0 kts | 161° |
| 2026-04-17 21:14 | 51.15236 | -0.16816 | 204 ft | 1 kts | 161° |
| 2026-04-17 21:14 | 51.15222 | -0.16808 | 204 ft | 4 kts | 161° |
| 2026-04-17 21:15 | 51.15150 | -0.16800 | 204 ft | 13 kts | 203° |
| 2026-04-17 21:15 | 51.15101 | -0.16931 | 204 ft | 14 kts | 254° |
| 2026-04-17 21:15 | 51.15056 | -0.17238 | 204 ft | 61 kts | 255° |
| 2026-04-17 21:15 | 51.14903 | -0.18363 | 205 ft | 143 kts | 257° |
| 2026-04-17 21:16 | 51.14629 | -0.20133 | 690 ft | 180 kts | 255° |
| 2026-04-17 21:16 | 51.14385 | -0.22036 | 1697 ft | 173 kts | 259° |
| 2026-04-17 21:16 | 51.14232 | -0.24074 | 1956 ft | 199 kts | 264° |
| 2026-04-17 21:16 | 51.14216 | -0.26267 | 2729 ft | 196 kts | 268° |
| 2026-04-17 21:17 | 51.14102 | -0.28247 | 3793 ft | 177 kts | 260° |
| 2026-04-17 21:17 | 51.14139 | -0.30224 | 4369 ft | 191 kts | 280° |
| 2026-04-17 21:17 | 51.14781 | -0.32206 | 4896 ft | 214 kts | 316° |
| 2026-04-17 21:17 | 51.16150 | -0.33106 | 5704 ft | 224 kts | 359° |
| 2026-04-17 21:18 | 51.17590 | -0.32432 | 6536 ft | 226 kts | 33° |
| 2026-04-17 21:18 | 51.18733 | -0.30634 | 7106 ft | 237 kts | 58° |
| 2026-04-17 21:18 | 51.19414 | -0.28243 | 7708 ft | 243 kts | 77° |
| 2026-04-17 21:18 | 51.19786 | -0.25443 | 7586 ft | 267 kts | 83° |
| 2026-04-17 21:19 | 51.20105 | -0.22496 | 7322 ft | 270 kts | 82° |
| 2026-04-17 21:19 | 51.20451 | -0.19537 | 7066 ft | 272 kts | 81° |
| 2026-04-17 21:19 | 51.20838 | -0.16514 | 6813 ft | 286 kts | 81° |
| 2026-04-17 21:19 | 51.21254 | -0.13326 | 6658 ft | 307 kts | 80° |
| 2026-04-17 21:20 | 51.21715 | -0.09806 | 6673 ft | 343 kts | 80° |
| 2026-04-17 21:20 | 51.22227 | -0.05890 | 6684 ft | 377 kts | 80° |
| 2026-04-17 21:20 | 51.22783 | -0.01618 | 6693 ft | 409 kts | 79° |
| 2026-04-17 21:20 | 51.23386 | 0.03026 | 6701 ft | 440 kts | 79° |
| 2026-04-17 21:21 | 51.24021 | 0.07928 | 6707 ft | 468 kts | 79° |
| 2026-04-17 21:21 | 51.24692 | 0.13127 | 5850 ft | 503 kts | 79° |
| 2026-04-17 21:21 | 51.25356 | 0.18336 | 629 ft | 40 kts | 83° |
| 2026-04-17 21:21 | 51.25367 | 0.18422 | 638 ft | 0 kts | 54° |
| 2026-04-17 21:22 | 51.25367 | 0.18424 | 638 ft | 0 kts | 54° |
| 2026-04-17 21:22 | 51.25368 | 0.18424 | 638 ft | 0 kts | 54° |